<?xml version="1.0" encoding="UTF-8" standalone="no" ?>
<gpx xmlns="http://www.topografix.com/GPX/1/1" xmlns:xsi="http://www.w3.org/2001/XMLSchema-instance" xsi:schemaLocation="http://www.topografix.com/GPX/1/1 http://www.topografix.com/GPX/1/1/gpx.xsd" version="1.1" creator="VisuGPX - https://www.visugpx.com">
  <metadata>
    <name>Mont du lyonnais St Martin</name>
    <desc><![CDATA[Circuits VTT autour de St martin en Haut pour vacances 2019]]></desc>
  </metadata>
  <trk>
    <name><![CDATA[10046673-LA GIMOND]]></name>
    <trkseg>
      <trkpt lat="45.66168" lon="4.56026">
        <ele>724</ele>
        <time>2019-07-29T10:33:05Z</time>
      </trkpt>
      <trkpt lat="45.66248" lon="4.5593">
        <ele>710</ele>
        <time>2019-07-29T10:33:29Z</time>
      </trkpt>
      <trkpt lat="45.66278" lon="4.55852">
        <ele>705</ele>
        <time>2019-07-29T10:33:44Z</time>
      </trkpt>
      <trkpt lat="45.66326" lon="4.55741">
        <ele>704</ele>
        <time>2019-07-29T10:34:05Z</time>
      </trkpt>
      <trkpt lat="45.66379" lon="4.55706">
        <ele>707</ele>
        <time>2019-07-29T10:34:19Z</time>
      </trkpt>
      <trkpt lat="45.66368" lon="4.55552">
        <ele>695</ele>
        <time>2019-07-29T10:34:44Z</time>
      </trkpt>
      <trkpt lat="45.66356" lon="4.55451">
        <ele>686</ele>
        <time>2019-07-29T10:35:01Z</time>
      </trkpt>
      <trkpt lat="45.66356" lon="4.55294">
        <ele>672</ele>
        <time>2019-07-29T10:35:26Z</time>
      </trkpt>
      <trkpt lat="45.66421" lon="4.5502">
        <ele>640</ele>
        <time>2019-07-29T10:36:14Z</time>
      </trkpt>
      <trkpt lat="45.66497" lon="4.54983">
        <ele>638</ele>
        <time>2019-07-29T10:36:32Z</time>
      </trkpt>
      <trkpt lat="45.66527" lon="4.55084">
        <ele>643</ele>
        <time>2019-07-29T10:36:50Z</time>
      </trkpt>
      <trkpt lat="45.66575" lon="4.55114">
        <ele>644</ele>
        <time>2019-07-29T10:37:03Z</time>
      </trkpt>
      <trkpt lat="45.66658" lon="4.55018">
        <ele>639</ele>
        <time>2019-07-29T10:37:27Z</time>
      </trkpt>
      <trkpt lat="45.66724" lon="4.54751">
        <ele>641</ele>
        <time>2019-07-29T10:38:14Z</time>
      </trkpt>
      <trkpt lat="45.66876" lon="4.54458">
        <ele>668</ele>
        <time>2019-07-29T10:39:13Z</time>
      </trkpt>
      <trkpt lat="45.66951" lon="4.54269">
        <ele>687</ele>
        <time>2019-07-29T10:39:49Z</time>
      </trkpt>
      <trkpt lat="45.66941" lon="4.54194">
        <ele>689</ele>
        <time>2019-07-29T10:40:01Z</time>
      </trkpt>
      <trkpt lat="45.66978" lon="4.5414">
        <ele>699</ele>
        <time>2019-07-29T10:40:14Z</time>
      </trkpt>
      <trkpt lat="45.66995" lon="4.54015">
        <ele>708</ele>
        <time>2019-07-29T10:40:34Z</time>
      </trkpt>
      <trkpt lat="45.67193" lon="4.53636">
        <ele>740</ele>
        <time>2019-07-29T10:41:52Z</time>
      </trkpt>
      <trkpt lat="45.67254" lon="4.53511">
        <ele>751</ele>
        <time>2019-07-29T10:42:16Z</time>
      </trkpt>
      <trkpt lat="45.67403" lon="4.53395">
        <ele>763</ele>
        <time>2019-07-29T10:42:56Z</time>
      </trkpt>
      <trkpt lat="45.67448" lon="4.53325">
        <ele>769</ele>
        <time>2019-07-29T10:43:12Z</time>
      </trkpt>
      <trkpt lat="45.67383" lon="4.53149">
        <ele>758</ele>
        <time>2019-07-29T10:43:44Z</time>
      </trkpt>
      <trkpt lat="45.67425" lon="4.52975">
        <ele>758</ele>
        <time>2019-07-29T10:44:14Z</time>
      </trkpt>
      <trkpt lat="45.67491" lon="4.52769">
        <ele>750</ele>
        <time>2019-07-29T10:44:51Z</time>
      </trkpt>
      <trkpt lat="45.67542" lon="4.52649">
        <ele>745</ele>
        <time>2019-07-29T10:45:14Z</time>
      </trkpt>
      <trkpt lat="45.67688" lon="4.52715">
        <ele>753</ele>
        <time>2019-07-29T10:45:50Z</time>
      </trkpt>
      <trkpt lat="45.67869" lon="4.52904">
        <ele>761</ele>
        <time>2019-07-29T10:46:42Z</time>
      </trkpt>
      <trkpt lat="45.67907" lon="4.53046">
        <ele>764</ele>
        <time>2019-07-29T10:47:07Z</time>
      </trkpt>
      <trkpt lat="45.68092" lon="4.5323">
        <ele>767</ele>
        <time>2019-07-29T10:47:59Z</time>
      </trkpt>
      <trkpt lat="45.68304" lon="4.53217">
        <ele>781</ele>
        <time>2019-07-29T10:48:49Z</time>
      </trkpt>
      <trkpt lat="45.68394" lon="4.53125">
        <ele>784</ele>
        <time>2019-07-29T10:49:15Z</time>
      </trkpt>
      <trkpt lat="45.68524" lon="4.53037">
        <ele>790</ele>
        <time>2019-07-29T10:49:48Z</time>
      </trkpt>
      <trkpt lat="45.68434" lon="4.52855">
        <ele>795</ele>
        <time>2019-07-29T10:50:25Z</time>
      </trkpt>
      <trkpt lat="45.68455" lon="4.52569">
        <ele>805</ele>
        <time>2019-07-29T10:51:12Z</time>
      </trkpt>
      <trkpt lat="45.68358" lon="4.52288">
        <ele>818</ele>
        <time>2019-07-29T10:52:03Z</time>
      </trkpt>
      <trkpt lat="45.68362" lon="4.5196">
        <ele>844</ele>
        <time>2019-07-29T10:52:56Z</time>
      </trkpt>
      <trkpt lat="45.6831" lon="4.51614">
        <ele>860</ele>
        <time>2019-07-29T10:53:54Z</time>
      </trkpt>
      <trkpt lat="45.68239" lon="4.51282">
        <ele>865</ele>
        <time>2019-07-29T10:54:51Z</time>
      </trkpt>
      <trkpt lat="45.68119" lon="4.51102">
        <ele>875</ele>
        <time>2019-07-29T10:55:31Z</time>
      </trkpt>
      <trkpt lat="45.68019" lon="4.51004">
        <ele>883</ele>
        <time>2019-07-29T10:56:00Z</time>
      </trkpt>
      <trkpt lat="45.67962" lon="4.50797">
        <ele>891</ele>
        <time>2019-07-29T10:56:36Z</time>
      </trkpt>
      <trkpt lat="45.67904" lon="4.50638">
        <ele>900</ele>
        <time>2019-07-29T10:57:05Z</time>
      </trkpt>
      <trkpt lat="45.67719" lon="4.50533">
        <ele>899</ele>
        <time>2019-07-29T10:57:52Z</time>
      </trkpt>
      <trkpt lat="45.67613" lon="4.50342">
        <ele>888</ele>
        <time>2019-07-29T10:58:32Z</time>
      </trkpt>
      <trkpt lat="45.6755" lon="4.5011">
        <ele>874</ele>
        <time>2019-07-29T10:59:12Z</time>
      </trkpt>
      <trkpt lat="45.6756" lon="4.49812">
        <ele>852</ele>
        <time>2019-07-29T11:00:01Z</time>
      </trkpt>
      <trkpt lat="45.6759" lon="4.49505">
        <ele>825</ele>
        <time>2019-07-29T11:00:51Z</time>
      </trkpt>
      <trkpt lat="45.67557" lon="4.49301">
        <ele>811</ele>
        <time>2019-07-29T11:01:26Z</time>
      </trkpt>
      <trkpt lat="45.67509" lon="4.49282">
        <ele>814</ele>
        <time>2019-07-29T11:01:37Z</time>
      </trkpt>
      <trkpt lat="45.67539" lon="4.49235">
        <ele>810</ele>
        <time>2019-07-29T11:01:48Z</time>
      </trkpt>
      <trkpt lat="45.6761" lon="4.49072">
        <ele>804</ele>
        <time>2019-07-29T11:02:19Z</time>
      </trkpt>
      <trkpt lat="45.67695" lon="4.48806">
        <ele>800</ele>
        <time>2019-07-29T11:03:07Z</time>
      </trkpt>
      <trkpt lat="45.6777" lon="4.48696">
        <ele>788</ele>
        <time>2019-07-29T11:03:32Z</time>
      </trkpt>
      <trkpt lat="45.67782" lon="4.48563">
        <ele>772</ele>
        <time>2019-07-29T11:03:54Z</time>
      </trkpt>
      <trkpt lat="45.67883" lon="4.48419">
        <ele>765</ele>
        <time>2019-07-29T11:04:27Z</time>
      </trkpt>
      <trkpt lat="45.67869" lon="4.48297">
        <ele>763</ele>
        <time>2019-07-29T11:04:47Z</time>
      </trkpt>
      <trkpt lat="45.67892" lon="4.48175">
        <ele>772</ele>
        <time>2019-07-29T11:05:08Z</time>
      </trkpt>
      <trkpt lat="45.67749" lon="4.48192">
        <ele>754</ele>
        <time>2019-07-29T11:05:41Z</time>
      </trkpt>
      <trkpt lat="45.67737" lon="4.48143">
        <ele>754</ele>
        <time>2019-07-29T11:05:50Z</time>
      </trkpt>
      <trkpt lat="45.67736" lon="4.48065">
        <ele>752</ele>
        <time>2019-07-29T11:06:02Z</time>
      </trkpt>
      <trkpt lat="45.67428" lon="4.481">
        <ele>772</ele>
        <time>2019-07-29T11:07:15Z</time>
      </trkpt>
      <trkpt lat="45.67364" lon="4.48052">
        <ele>773</ele>
        <time>2019-07-29T11:07:31Z</time>
      </trkpt>
      <trkpt lat="45.67292" lon="4.48044">
        <ele>769</ele>
        <time>2019-07-29T11:07:48Z</time>
      </trkpt>
      <trkpt lat="45.67268" lon="4.47971">
        <ele>768</ele>
        <time>2019-07-29T11:08:01Z</time>
      </trkpt>
      <trkpt lat="45.67244" lon="4.47703">
        <ele>767</ele>
        <time>2019-07-29T11:08:46Z</time>
      </trkpt>
      <trkpt lat="45.67167" lon="4.47432">
        <ele>765</ele>
        <time>2019-07-29T11:09:33Z</time>
      </trkpt>
      <trkpt lat="45.67034" lon="4.47168">
        <ele>763</ele>
        <time>2019-07-29T11:10:26Z</time>
      </trkpt>
      <trkpt lat="45.66854" lon="4.46952">
        <ele>782</ele>
        <time>2019-07-29T11:11:21Z</time>
      </trkpt>
      <trkpt lat="45.66724" lon="4.46761">
        <ele>788</ele>
        <time>2019-07-29T11:12:05Z</time>
      </trkpt>
      <trkpt lat="45.6659" lon="4.46537">
        <ele>769</ele>
        <time>2019-07-29T11:12:53Z</time>
      </trkpt>
      <trkpt lat="45.66498" lon="4.46521">
        <ele>760</ele>
        <time>2019-07-29T11:13:15Z</time>
      </trkpt>
      <trkpt lat="45.66346" lon="4.4649">
        <ele>748</ele>
        <time>2019-07-29T11:13:50Z</time>
      </trkpt>
      <trkpt lat="45.66268" lon="4.46366">
        <ele>742</ele>
        <time>2019-07-29T11:14:18Z</time>
      </trkpt>
      <trkpt lat="45.66205" lon="4.46093">
        <ele>747</ele>
        <time>2019-07-29T11:15:05Z</time>
      </trkpt>
      <trkpt lat="45.66217" lon="4.45701">
        <ele>722</ele>
        <time>2019-07-29T11:16:09Z</time>
      </trkpt>
      <trkpt lat="45.66224" lon="4.45572">
        <ele>716</ele>
        <time>2019-07-29T11:16:30Z</time>
      </trkpt>
      <trkpt lat="45.66244" lon="4.4548">
        <ele>713</ele>
        <time>2019-07-29T11:16:45Z</time>
      </trkpt>
      <trkpt lat="45.66284" lon="4.45336">
        <ele>709</ele>
        <time>2019-07-29T11:17:11Z</time>
      </trkpt>
      <trkpt lat="45.66295" lon="4.4522">
        <ele>707</ele>
        <time>2019-07-29T11:17:30Z</time>
      </trkpt>
      <trkpt lat="45.66404" lon="4.45046">
        <ele>688</ele>
        <time>2019-07-29T11:18:08Z</time>
      </trkpt>
      <trkpt lat="45.66377" lon="4.44814">
        <ele>671</ele>
        <time>2019-07-29T11:18:46Z</time>
      </trkpt>
      <trkpt lat="45.66302" lon="4.44591">
        <ele>674</ele>
        <time>2019-07-29T11:19:27Z</time>
      </trkpt>
      <trkpt lat="45.66151" lon="4.44413">
        <ele>669</ele>
        <time>2019-07-29T11:20:12Z</time>
      </trkpt>
      <trkpt lat="45.66022" lon="4.44287">
        <ele>664</ele>
        <time>2019-07-29T11:20:49Z</time>
      </trkpt>
      <trkpt lat="45.65867" lon="4.44246">
        <ele>685</ele>
        <time>2019-07-29T11:21:26Z</time>
      </trkpt>
      <trkpt lat="45.65804" lon="4.44158">
        <ele>687</ele>
        <time>2019-07-29T11:21:46Z</time>
      </trkpt>
      <trkpt lat="45.65699" lon="4.44169">
        <ele>710</ele>
        <time>2019-07-29T11:22:11Z</time>
      </trkpt>
      <trkpt lat="45.65632" lon="4.44087">
        <ele>712</ele>
        <time>2019-07-29T11:22:31Z</time>
      </trkpt>
      <trkpt lat="45.6551" lon="4.43922">
        <ele>718</ele>
        <time>2019-07-29T11:23:11Z</time>
      </trkpt>
      <trkpt lat="45.65357" lon="4.43761">
        <ele>722</ele>
        <time>2019-07-29T11:23:55Z</time>
      </trkpt>
      <trkpt lat="45.65203" lon="4.43681">
        <ele>728</ele>
        <time>2019-07-29T11:24:33Z</time>
      </trkpt>
      <trkpt lat="45.6514" lon="4.43716">
        <ele>727</ele>
        <time>2019-07-29T11:24:49Z</time>
      </trkpt>
      <trkpt lat="45.65133" lon="4.43665">
        <ele>726</ele>
        <time>2019-07-29T11:24:58Z</time>
      </trkpt>
      <trkpt lat="45.65086" lon="4.43572">
        <ele>725</ele>
        <time>2019-07-29T11:25:16Z</time>
      </trkpt>
      <trkpt lat="45.65044" lon="4.43415">
        <ele>713</ele>
        <time>2019-07-29T11:25:44Z</time>
      </trkpt>
      <trkpt lat="45.64999" lon="4.4337">
        <ele>705</ele>
        <time>2019-07-29T11:25:57Z</time>
      </trkpt>
      <trkpt lat="45.65075" lon="4.43267">
        <ele>692</ele>
        <time>2019-07-29T11:26:21Z</time>
      </trkpt>
      <trkpt lat="45.65089" lon="4.43136">
        <ele>677</ele>
        <time>2019-07-29T11:26:43Z</time>
      </trkpt>
      <trkpt lat="45.64837" lon="4.42976">
        <ele>678</ele>
        <time>2019-07-29T11:27:47Z</time>
      </trkpt>
      <trkpt lat="45.64757" lon="4.43229">
        <ele>656</ele>
        <time>2019-07-29T11:28:32Z</time>
      </trkpt>
      <trkpt lat="45.64674" lon="4.43212">
        <ele>656</ele>
        <time>2019-07-29T11:28:52Z</time>
      </trkpt>
      <trkpt lat="45.64573" lon="4.4322">
        <ele>649</ele>
        <time>2019-07-29T11:29:16Z</time>
      </trkpt>
      <trkpt lat="45.64504" lon="4.42969">
        <ele>657</ele>
        <time>2019-07-29T11:30:00Z</time>
      </trkpt>
      <trkpt lat="45.64502" lon="4.42791">
        <ele>668</ele>
        <time>2019-07-29T11:30:29Z</time>
      </trkpt>
      <trkpt lat="45.6437" lon="4.42821">
        <ele>655</ele>
        <time>2019-07-29T11:31:00Z</time>
      </trkpt>
      <trkpt lat="45.64256" lon="4.43214">
        <ele>611</ele>
        <time>2019-07-29T11:32:09Z</time>
      </trkpt>
      <trkpt lat="45.64189" lon="4.43312">
        <ele>599</ele>
        <time>2019-07-29T11:32:32Z</time>
      </trkpt>
      <trkpt lat="45.64156" lon="4.43415">
        <ele>596</ele>
        <time>2019-07-29T11:32:50Z</time>
      </trkpt>
      <trkpt lat="45.64153" lon="4.43478">
        <ele>599</ele>
        <time>2019-07-29T11:33:01Z</time>
      </trkpt>
      <trkpt lat="45.64058" lon="4.43639">
        <ele>605</ele>
        <time>2019-07-29T11:33:35Z</time>
      </trkpt>
      <trkpt lat="45.63983" lon="4.43883">
        <ele>600</ele>
        <time>2019-07-29T11:34:18Z</time>
      </trkpt>
      <trkpt lat="45.63976" lon="4.44078">
        <ele>589</ele>
        <time>2019-07-29T11:34:50Z</time>
      </trkpt>
      <trkpt lat="45.63943" lon="4.44192">
        <ele>587</ele>
        <time>2019-07-29T11:35:10Z</time>
      </trkpt>
      <trkpt lat="45.63905" lon="4.44334">
        <ele>591</ele>
        <time>2019-07-29T11:35:35Z</time>
      </trkpt>
      <trkpt lat="45.63904" lon="4.4448">
        <ele>607</ele>
        <time>2019-07-29T11:35:59Z</time>
      </trkpt>
      <trkpt lat="45.6374" lon="4.44654">
        <ele>621</ele>
        <time>2019-07-29T11:36:47Z</time>
      </trkpt>
      <trkpt lat="45.63712" lon="4.44711">
        <ele>623</ele>
        <time>2019-07-29T11:36:58Z</time>
      </trkpt>
      <trkpt lat="45.63767" lon="4.44896">
        <ele>624</ele>
        <time>2019-07-29T11:37:31Z</time>
      </trkpt>
      <trkpt lat="45.63907" lon="4.44748">
        <ele>627</ele>
        <time>2019-07-29T11:38:12Z</time>
      </trkpt>
      <trkpt lat="45.64154" lon="4.44819">
        <ele>625</ele>
        <time>2019-07-29T11:39:10Z</time>
      </trkpt>
      <trkpt lat="45.6436" lon="4.44731">
        <ele>627</ele>
        <time>2019-07-29T11:40:01Z</time>
      </trkpt>
      <trkpt lat="45.64511" lon="4.44649">
        <ele>624</ele>
        <time>2019-07-29T11:40:38Z</time>
      </trkpt>
      <trkpt lat="45.64541" lon="4.44754">
        <ele>631</ele>
        <time>2019-07-29T11:40:57Z</time>
      </trkpt>
      <trkpt lat="45.6445" lon="4.44817">
        <ele>635</ele>
        <time>2019-07-29T11:41:21Z</time>
      </trkpt>
      <trkpt lat="45.64472" lon="4.44969">
        <ele>638</ele>
        <time>2019-07-29T11:41:46Z</time>
      </trkpt>
      <trkpt lat="45.64688" lon="4.45044">
        <ele>639</ele>
        <time>2019-07-29T11:42:38Z</time>
      </trkpt>
      <trkpt lat="45.64606" lon="4.45505">
        <ele>618</ele>
        <time>2019-07-29T11:43:55Z</time>
      </trkpt>
      <trkpt lat="45.64661" lon="4.45643">
        <ele>617</ele>
        <time>2019-07-29T11:44:21Z</time>
      </trkpt>
      <trkpt lat="45.64591" lon="4.45731">
        <ele>611</ele>
        <time>2019-07-29T11:44:43Z</time>
      </trkpt>
      <trkpt lat="45.64504" lon="4.45714">
        <ele>607</ele>
        <time>2019-07-29T11:45:04Z</time>
      </trkpt>
      <trkpt lat="45.64474" lon="4.45913">
        <ele>618</ele>
        <time>2019-07-29T11:45:37Z</time>
      </trkpt>
      <trkpt lat="45.64372" lon="4.45894">
        <ele>627</ele>
        <time>2019-07-29T11:46:01Z</time>
      </trkpt>
      <trkpt lat="45.64309" lon="4.46143">
        <ele>635</ele>
        <time>2019-07-29T11:46:44Z</time>
      </trkpt>
      <trkpt lat="45.64577" lon="4.4616">
        <ele>638</ele>
        <time>2019-07-29T11:47:47Z</time>
      </trkpt>
      <trkpt lat="45.64859" lon="4.46398">
        <ele>633</ele>
        <time>2019-07-29T11:49:03Z</time>
      </trkpt>
      <trkpt lat="45.65056" lon="4.46557">
        <ele>626</ele>
        <time>2019-07-29T11:49:56Z</time>
      </trkpt>
      <trkpt lat="45.65074" lon="4.46746">
        <ele>633</ele>
        <time>2019-07-29T11:50:27Z</time>
      </trkpt>
      <trkpt lat="45.65123" lon="4.46812">
        <ele>636</ele>
        <time>2019-07-29T11:50:43Z</time>
      </trkpt>
      <trkpt lat="45.65066" lon="4.46924">
        <ele>649</ele>
        <time>2019-07-29T11:51:06Z</time>
      </trkpt>
      <trkpt lat="45.65059" lon="4.47001">
        <ele>657</ele>
        <time>2019-07-29T11:51:18Z</time>
      </trkpt>
      <trkpt lat="45.65005" lon="4.47031">
        <ele>658</ele>
        <time>2019-07-29T11:51:32Z</time>
      </trkpt>
      <trkpt lat="45.64928" lon="4.47136">
        <ele>652</ele>
        <time>2019-07-29T11:51:57Z</time>
      </trkpt>
      <trkpt lat="45.64951" lon="4.47283">
        <ele>644</ele>
        <time>2019-07-29T11:52:21Z</time>
      </trkpt>
      <trkpt lat="45.64922" lon="4.47329">
        <ele>637</ele>
        <time>2019-07-29T11:52:31Z</time>
      </trkpt>
      <trkpt lat="45.64904" lon="4.47404">
        <ele>637</ele>
        <time>2019-07-29T11:52:44Z</time>
      </trkpt>
      <trkpt lat="45.64901" lon="4.47497">
        <ele>645</ele>
        <time>2019-07-29T11:52:59Z</time>
      </trkpt>
      <trkpt lat="45.64718" lon="4.474">
        <ele>644</ele>
        <time>2019-07-29T11:53:45Z</time>
      </trkpt>
      <trkpt lat="45.64628" lon="4.47473">
        <ele>650</ele>
        <time>2019-07-29T11:54:09Z</time>
      </trkpt>
      <trkpt lat="45.64456" lon="4.47598">
        <ele>647</ele>
        <time>2019-07-29T11:54:54Z</time>
      </trkpt>
      <trkpt lat="45.64328" lon="4.47537">
        <ele>640</ele>
        <time>2019-07-29T11:55:26Z</time>
      </trkpt>
      <trkpt lat="45.64124" lon="4.47578">
        <ele>622</ele>
        <time>2019-07-29T11:56:14Z</time>
      </trkpt>
      <trkpt lat="45.63989" lon="4.47653">
        <ele>610</ele>
        <time>2019-07-29T11:56:48Z</time>
      </trkpt>
      <trkpt lat="45.64054" lon="4.47943">
        <ele>613</ele>
        <time>2019-07-29T11:57:37Z</time>
      </trkpt>
      <trkpt lat="45.64154" lon="4.48282">
        <ele>634</ele>
        <time>2019-07-29T11:58:37Z</time>
      </trkpt>
      <trkpt lat="45.64216" lon="4.48372">
        <ele>640</ele>
        <time>2019-07-29T11:58:58Z</time>
      </trkpt>
      <trkpt lat="45.64229" lon="4.48833">
        <ele>661</ele>
        <time>2019-07-29T12:00:13Z</time>
      </trkpt>
      <trkpt lat="45.64322" lon="4.49441">
        <ele>684</ele>
        <time>2019-07-29T12:01:55Z</time>
      </trkpt>
      <trkpt lat="45.64283" lon="4.49602">
        <ele>687</ele>
        <time>2019-07-29T12:02:23Z</time>
      </trkpt>
      <trkpt lat="45.64391" lon="4.50024">
        <ele>700</ele>
        <time>2019-07-29T12:03:36Z</time>
      </trkpt>
      <trkpt lat="45.64538" lon="4.50466">
        <ele>694</ele>
        <time>2019-07-29T12:04:56Z</time>
      </trkpt>
      <trkpt lat="45.64673" lon="4.50599">
        <ele>693</ele>
        <time>2019-07-29T12:05:34Z</time>
      </trkpt>
      <trkpt lat="45.64696" lon="4.50799">
        <ele>692</ele>
        <time>2019-07-29T12:06:08Z</time>
      </trkpt>
      <trkpt lat="45.64789" lon="4.50966">
        <ele>689</ele>
        <time>2019-07-29T12:06:42Z</time>
      </trkpt>
      <trkpt lat="45.64945" lon="4.51011">
        <ele>675</ele>
        <time>2019-07-29T12:07:20Z</time>
      </trkpt>
      <trkpt lat="45.65086" lon="4.51095">
        <ele>664</ele>
        <time>2019-07-29T12:07:55Z</time>
      </trkpt>
      <trkpt lat="45.65233" lon="4.51014">
        <ele>662</ele>
        <time>2019-07-29T12:08:32Z</time>
      </trkpt>
      <trkpt lat="45.6523" lon="4.51106">
        <ele>662</ele>
        <time>2019-07-29T12:08:47Z</time>
      </trkpt>
      <trkpt lat="45.65173" lon="4.51191">
        <ele>665</ele>
        <time>2019-07-29T12:09:06Z</time>
      </trkpt>
      <trkpt lat="45.65023" lon="4.51331">
        <ele>663</ele>
        <time>2019-07-29T12:09:48Z</time>
      </trkpt>
      <trkpt lat="45.64978" lon="4.51432">
        <ele>661</ele>
        <time>2019-07-29T12:10:08Z</time>
      </trkpt>
      <trkpt lat="45.64838" lon="4.51479">
        <ele>659</ele>
        <time>2019-07-29T12:10:41Z</time>
      </trkpt>
      <trkpt lat="45.6476" lon="4.51788">
        <ele>689</ele>
        <time>2019-07-29T12:11:35Z</time>
      </trkpt>
      <trkpt lat="45.64756" lon="4.52011">
        <ele>700</ele>
        <time>2019-07-29T12:12:11Z</time>
      </trkpt>
      <trkpt lat="45.64964" lon="4.52559">
        <ele>699</ele>
        <time>2019-07-29T12:13:53Z</time>
      </trkpt>
      <trkpt lat="45.65029" lon="4.52713">
        <ele>695</ele>
        <time>2019-07-29T12:14:22Z</time>
      </trkpt>
      <trkpt lat="45.65273" lon="4.52814">
        <ele>693</ele>
        <time>2019-07-29T12:15:22Z</time>
      </trkpt>
      <trkpt lat="45.65378" lon="4.52958">
        <ele>683</ele>
        <time>2019-07-29T12:15:56Z</time>
      </trkpt>
      <trkpt lat="45.65584" lon="4.532">
        <ele>677</ele>
        <time>2019-07-29T12:16:58Z</time>
      </trkpt>
      <trkpt lat="45.65824" lon="4.53601">
        <ele>676</ele>
        <time>2019-07-29T12:18:24Z</time>
      </trkpt>
      <trkpt lat="45.65824" lon="4.53865">
        <ele>665</ele>
        <time>2019-07-29T12:19:07Z</time>
      </trkpt>
      <trkpt lat="45.65843" lon="4.54157">
        <ele>646</ele>
        <time>2019-07-29T12:19:55Z</time>
      </trkpt>
      <trkpt lat="45.65839" lon="4.54359">
        <ele>629</ele>
        <time>2019-07-29T12:20:28Z</time>
      </trkpt>
      <trkpt lat="45.65824" lon="4.54483">
        <ele>624</ele>
        <time>2019-07-29T12:20:49Z</time>
      </trkpt>
      <trkpt lat="45.6581" lon="4.5455">
        <ele>626</ele>
        <time>2019-07-29T12:21:00Z</time>
      </trkpt>
      <trkpt lat="45.65854" lon="4.54775">
        <ele>641</ele>
        <time>2019-07-29T12:21:38Z</time>
      </trkpt>
      <trkpt lat="45.65888" lon="4.54878">
        <ele>649</ele>
        <time>2019-07-29T12:21:57Z</time>
      </trkpt>
      <trkpt lat="45.65854" lon="4.54827">
        <ele>647</ele>
        <time>2019-07-29T12:22:08Z</time>
      </trkpt>
      <trkpt lat="45.65779" lon="4.55067">
        <ele>671</ele>
        <time>2019-07-29T12:22:51Z</time>
      </trkpt>
      <trkpt lat="45.65885" lon="4.55142">
        <ele>677</ele>
        <time>2019-07-29T12:23:19Z</time>
      </trkpt>
      <trkpt lat="45.65866" lon="4.55294">
        <ele>687</ele>
        <time>2019-07-29T12:23:44Z</time>
      </trkpt>
      <trkpt lat="45.65869" lon="4.55541">
        <ele>694</ele>
        <time>2019-07-29T12:24:24Z</time>
      </trkpt>
      <trkpt lat="45.65918" lon="4.55728">
        <ele>708</ele>
        <time>2019-07-29T12:24:57Z</time>
      </trkpt>
      <trkpt lat="45.66088" lon="4.55876">
        <ele>718</ele>
        <time>2019-07-29T12:25:43Z</time>
      </trkpt>
      <trkpt lat="45.66104" lon="4.55992">
        <ele>728</ele>
        <time>2019-07-29T12:26:03Z</time>
      </trkpt>
      <trkpt lat="45.66167" lon="4.56037">
        <ele>726</ele>
        <time>2019-07-29T12:26:19Z</time>
      </trkpt>
      <trkpt lat="45.66172" lon="4.5605">
        <ele>727</ele>
        <time>2019-07-29T12:26:22Z</time>
      </trkpt>
    </trkseg>
  </trk>
</gpx>